Home   Weather   USA   Kodiak   Past weeks
Flag for USA

Past Weather in Kodiak, Alaska, USA — Yesterday and Last 2 Weeks

Currently: 27 °F. Partly sunny. (Weather station: Kodiak Weather Reporting Station, USA). See more current weather

Past Weather in Kodiak — Graph

°F

Kodiak Temperature Yesterday

Maximum temperature yesterday: 45 °F (at 2:53 pm)
Minimum temperature yesterday: 29 °F (at 11:53 pm)
Average temperature yesterday: 37 °F

High & Low Weather Summary for the Past Weeks

 TemperatureHumidityPressure
High45 °F (Apr 14, 2:53 pm)100% (Apr 4, 4:53 am)30.38 "Hg (Apr 4, 4:53 am)
Low17 °F (Apr 9, 6:53 am)27% (Apr 2, 4:53 pm)29.35 "Hg (Apr 6, 6:53 pm)
Average33 °F70%29.76 "Hg
* Reported Mar 31 7:53 am — Apr 15 7:39 am, Kodiak. Weather by CustomWeather, © 2024

Note: Actual official high and low records may vary slightly from our data, if they occured in-between our weather recording intervals... More about our weather records

Kodiak Weather History for the Previous 24 Hours

Scroll right to see more
 ConditionsComfort  
Time TempWeatherWind HumidityBarometerVisibility
7:39 am
Mon, Apr 15
27 °FOvercast.6 mph85%30.37 "Hg10 mi
6:53 am26 °FOvercast.6 mph88%30.36 "Hg10 mi
5:53 am25 °FPassing clouds.5 mph88%30.37 "Hg10 mi
5:40 am24 °FPassing clouds.7 mph88%30.37 "Hg10 mi
5:20 am25 °FPassing clouds.7 mph85%30.37 "Hg10 mi
4:53 am24 °FPassing clouds.5 mph88%30.37 "Hg10 mi
3:53 am25 °FClear.6 mph85%30.37 "Hg10 mi
2:53 am26 °FClear.6 mph77%30.38 "Hg10 mi
1:53 am27 °FClear.6 mph78%30.37 "Hg10 mi
12:53 am27 °FClear.7 mph78%30.36 "Hg10 mi
11:53 pm
Sun, Apr 14
29 °FClear.8 mph75%30.36 "Hg10 mi
10:53 pm30 °FClear.6 mph72%30.35 "Hg10 mi
9:53 pm33 °FClear.7 mph66%30.34 "Hg10 mi
8:53 pm38 °FSunny.6 mph58%30.32 "Hg10 mi
7:53 pm39 °FSunny.7 mph53%30.32 "Hg10 mi
6:53 pm40 °FSunny.8 mph53%30.31 "Hg10 mi
5:53 pm41 °FSunny.10 mph51%30.30 "Hg10 mi
4:53 pm42 °FSunny.13 mph53%30.29 "Hg10 mi
4:10 pm43 °FSunny.13 mph51%30.28 "Hg10 mi
3:53 pm42 °FSunny.14 mph51%30.29 "Hg10 mi
2:53 pm45 °FSunny.14 mph38%30.27 "Hg10 mi
1:53 pm43 °FSunny.8 mph40%30.27 "Hg10 mi
12:53 pm42 °FSunny.13 mph41%30.25 "Hg10 mi
11:53 am41 °FSunny.13 mph38%30.24 "Hg10 mi
10:53 am40 °FSunny.14 mph36%30.22 "Hg10 mi
9:53 am39 °FSunny.13 mph36%30.21 "Hg10 mi
8:53 am37 °FSunny.8 mph41%30.19 "Hg10 mi
Weather by CustomWeather, © 2024

See weather overview